Time;durP1;ratioP1;P1;durP2;ratioP2;P2;SDS_P1;SDS_P2;PMS_P1;PMS_P2;Temp;Humidity;BMP_temperature;BMP_pressure;BME280_temperature;BME280_humidity;BME280_pressure;Samples;Min_cycle;Max_cycle;Signal;HPM_P1;HPM_P2
2022/08/16 00:01:17;;;;;;;1999.90;999.90;;;20.90;99.90;;;;;;5033000;28;20410;-66
2022/08/16 00:03:43;;;;;;;1999.90;999.90;;;20.80;99.90;;;;;;5032962;28;20423;-66
2022/08/16 00:06:09;;;;;;;1999.90;999.90;;;20.70;99.90;;;;;;5032633;28;20396;-67
2022/08/16 00:08:35;;;;;;;1999.90;999.90;;;20.50;99.90;;;;;;5033094;28;20933;-65
2022/08/16 00:11:01;;;;;;;1999.90;999.90;;;20.40;99.90;;;;;;5032924;28;20174;-66
2022/08/16 00:13:26;;;;;;;1999.90;999.90;;;20.20;99.90;;;;;;5032819;28;20649;-66
2022/08/16 00:15:52;;;;;;;1999.90;999.90;;;20.10;99.90;;;;;;5032641;28;20406;-66
2022/08/16 00:18:18;;;;;;;1999.90;999.90;;;20.10;99.90;;;;;;5031986;28;20181;-67
2022/08/16 00:20:46;;;;;;;1999.90;999.90;;;20.00;99.90;;;;;;5032608;28;20202;-66
2022/08/16 00:23:13;;;;;;;1999.90;999.90;;;19.90;99.90;;;;;;5032622;28;20421;-66
2022/08/16 00:25:39;;;;;;;1999.90;999.90;;;19.90;99.90;;;;;;5032497;28;20426;-66
2022/08/16 00:28:06;;;;;;;1999.90;999.90;;;19.80;99.90;;;;;;5032356;28;20832;-66
2022/08/16 00:30:32;;;;;;;1999.90;999.90;;;19.80;99.90;;;;;;5032529;28;20795;-66
2022/08/16 00:32:59;;;;;;;1999.90;999.90;;;19.70;99.90;;;;;;5032437;28;20407;-66
2022/08/16 00:35:29;;;;;;;1999.90;999.90;;;19.70;99.90;;;;;;5032332;28;20510;-66
2022/08/16 00:37:55;;;;;;;1999.90;999.90;;;19.70;99.90;;;;;;5032134;28;20413;-66
2022/08/16 00:40:34;;;;;;;1999.90;999.90;;;19.70;99.90;;;;;;5032314;28;20432;-66
2022/08/16 00:43:02;;;;;;;1999.90;999.90;;;19.60;99.90;;;;;;5032464;28;20168;-67
2022/08/16 00:45:45;;;;;;;1999.90;999.90;;;19.50;99.90;;;;;;5032134;28;20413;-66
2022/08/16 00:48:13;;;;;;;1999.90;999.90;;;19.50;99.90;;;;;;5032035;28;20740;-66
2022/08/16 00:50:40;;;;;;;1999.90;999.90;;;19.40;99.90;;;;;;5032200;28;20383;-66
2022/08/16 00:53:10;;;;;;;1999.90;999.90;;;19.40;99.90;;;;;;5032105;28;20407;-66
2022/08/16 00:55:40;;;;;;;1999.90;999.90;;;19.40;99.90;;;;;;5031996;28;20527;-67
2022/08/16 00:58:09;;;;;;;1999.90;999.90;;;19.20;99.90;;;;;;5031880;28;20503;-67
2022/08/16 01:00:35;;;;;;;1999.90;999.90;;;19.20;99.90;;;;;;5031851;28;20457;-66
2022/08/16 01:03:06;;;;;;;1999.90;999.90;;;19.20;99.90;;;;;;5032088;28;20407;-67
2022/08/16 01:05:32;;;;;;;1999.90;999.90;;;19.20;99.90;;;;;;5031863;28;20967;-67
2022/08/16 01:07:57;;;;;;;1999.90;999.90;;;19.10;99.90;;;;;;5031750;28;20414;-66
2022/08/16 01:10:26;;;;;;;1999.90;999.90;;;19.10;99.90;;;;;;5032009;28;20639;-67
2022/08/16 01:12:52;;;;;;;1999.90;999.90;;;19.20;99.90;;;;;;5037694;28;20411;-67
2022/08/16 01:15:18;;;;;;;1999.90;999.90;;;19.20;99.90;;;;;;5038343;28;20439;-66
2022/08/16 01:17:46;;;;;;;1999.90;999.90;;;19.20;99.90;;;;;;5037538;28;20612;-67
2022/08/16 01:20:15;;;;;;;1999.90;999.90;;;19.10;99.90;;;;;;5038724;28;20196;-67
2022/08/16 01:22:54;;;;;;;1999.90;999.90;;;19.10;99.90;;;;;;5038944;28;20411;-67
2022/08/16 01:25:32;;;;;;;1999.90;999.90;;;19.10;99.90;;;;;;5039307;28;20487;-66
2022/08/16 01:28:00;;;;;;;1999.90;999.90;;;19.10;99.90;;;;;;5038720;28;20410;-67
2022/08/16 01:30:30;;;;;;;1999.90;999.90;;;19.10;99.90;;;;;;5040901;28;20433;-67
2022/08/16 01:32:58;;;;;;;1999.90;999.90;;;19.20;99.90;;;;;;5042762;28;20422;-66
2022/08/16 01:35:28;;;;;;;1999.90;999.90;;;19.10;99.90;;;;;;5042475;28;20438;-66
2022/08/16 01:37:56;;;;;;;1999.90;999.90;;;19.10;99.90;;;;;;5042539;28;20447;-67
2022/08/16 01:40:26;;;;;;;1999.90;999.90;;;19.10;99.90;;;;;;5043677;28;20526;-65
2022/08/16 01:42:53;;;;;;;1999.90;999.90;;;19.00;99.90;;;;;;5042531;28;20391;-66
2022/08/16 01:45:19;;;;;;;1999.90;999.90;;;18.90;99.90;;;;;;5043740;28;20440;-67
2022/08/16 01:47:48;;;;;;;1999.90;999.90;;;18.90;99.90;;;;;;5042704;28;20434;-67
2022/08/16 01:50:14;;;;;;;1999.90;999.90;;;18.90;99.90;;;;;;5041459;28;20409;-67
2022/08/16 01:52:41;;;;;;;1999.90;999.90;;;19.00;99.90;;;;;;5041294;28;20430;-66
2022/08/16 01:55:07;;;;;;;1999.90;999.90;;;19.00;99.90;;;;;;5042294;28;20570;-67
2022/08/16 01:57:33;;;;;;;1999.90;999.90;;;19.00;99.90;;;;;;5042992;28;20405;-67
2022/08/16 01:59:59;;;;;;;1999.90;999.90;;;19.00;99.90;;;;;;5042503;28;20529;-67
2022/08/16 02:02:26;;;;;;;1999.90;999.90;;;19.00;99.90;;;;;;5043259;28;20183;-67
2022/08/16 02:04:51;;;;;;;1999.90;999.90;;;18.90;99.90;;;;;;5043245;28;20450;-66
2022/08/16 02:07:19;;;;;;;1999.90;999.90;;;18.90;99.90;;;;;;5044147;28;20414;-67
2022/08/16 02:09:46;;;;;;;1999.90;999.90;;;18.80;99.90;;;;;;5045182;28;20209;-67
2022/08/16 02:12:14;;;;;;;1999.90;999.90;;;18.90;99.90;;;;;;5044548;28;20809;-66
2022/08/16 02:14:39;;;;;;;1999.90;999.90;;;18.80;99.90;;;;;;5045969;28;20480;-67
2022/08/16 02:17:08;;;;;;;1999.90;999.90;;;18.80;99.90;;;;;;5042514;28;20443;-67
2022/08/16 02:19:36;;;;;;;1999.90;999.90;;;18.70;99.90;;;;;;5043358;28;20190;-67
2022/08/16 02:22:04;;;;;;;1999.90;999.90;;;18.70;99.90;;;;;;5043099;28;20410;-67
2022/08/16 02:24:30;;;;;;;1999.90;999.90;;;18.70;99.90;;;;;;5043287;28;21023;-67
2022/08/16 02:26:56;;;;;;;1999.90;999.90;;;18.70;99.90;;;;;;5042713;28;20407;-67
2022/08/16 02:29:21;;;;;;;1999.90;999.90;;;18.70;99.90;;;;;;5043976;28;20419;-67
2022/08/16 02:31:48;;;;;;;1999.90;999.90;;;18.60;99.90;;;;;;5042682;28;20172;-66
2022/08/16 02:34:16;;;;;;;1999.90;999.90;;;18.60;99.90;;;;;;5042781;28;20274;-67
2022/08/16 02:36:42;;;;;;;1999.90;999.90;;;18.50;99.90;;;;;;5035113;28;20409;-67
2022/08/16 02:39:10;;;;;;;1999.90;999.90;;;18.40;99.90;;;;;;5034575;28;20496;-67
2022/08/16 02:41:37;;;;;;;1999.90;999.90;;;18.40;99.90;;;;;;5034107;28;20385;-66
2022/08/16 02:44:04;;;;;;;1999.90;999.90;;;18.50;99.90;;;;;;5034461;28;20451;-67
2022/08/16 02:46:31;;;;;;;1999.90;999.90;;;18.50;99.90;;;;;;5034040;28;20404;-66
2022/08/16 02:48:57;;;;;;;1999.90;999.90;;;18.40;99.90;;;;;;5034626;28;20969;-66
2022/08/16 02:51:24;;;;;;;1999.90;999.90;;;18.40;99.90;;;;;;5034303;28;20479;-66
2022/08/16 02:53:51;;;;;;;1999.90;999.90;;;18.40;99.90;;;;;;5034237;28;20405;-66
2022/08/16 02:56:17;;;;;;;1999.90;999.90;;;18.40;99.90;;;;;;5034036;28;20407;-66
2022/08/16 02:58:46;;;;;;;1999.90;999.90;;;18.40;99.90;;;;;;5034218;28;20454;-66
2022/08/16 03:01:13;;;;;;;1999.90;999.90;;;18.40;99.90;;;;;;5034062;28;20411;-66
2022/08/16 03:03:39;;;;;;;1999.90;999.90;;;18.40;99.90;;;;;;5034082;28;20407;-66
2022/08/16 03:06:05;;;;;;;1999.90;999.90;;;18.40;99.90;;;;;;5033643;28;20444;-66
2022/08/16 03:08:31;;;;;;;1999.90;999.90;;;18.40;99.90;;;;;;5034132;28;20558;-67
2022/08/16 03:10:57;;;;;;;1999.90;999.90;;;18.40;99.90;;;;;;5034048;28;20408;-66
2022/08/16 03:13:23;;;;;;;1999.90;999.90;;;18.30;99.90;;;;;;5034035;28;20712;-66
2022/08/16 03:15:48;;;;;;;1999.90;999.90;;;18.30;99.90;;;;;;5033696;28;20931;-66
2022/08/16 03:18:14;;;;;;;1999.90;999.90;;;18.30;99.90;;;;;;5033702;28;20247;-66
2022/08/16 03:20:40;;;;;;;1999.90;999.90;;;18.30;99.90;;;;;;5033785;28;20199;-66
2022/08/16 03:23:06;;;;;;;1999.90;999.90;;;18.30;99.90;;;;;;5033794;28;20167;-66
2022/08/16 03:25:33;;;;;;;1999.90;999.90;;;18.20;99.90;;;;;;5033649;28;20425;-66
2022/08/16 03:27:59;;;;;;;1999.90;999.90;;;18.20;99.90;;;;;;5033447;28;20392;-65
2022/08/16 03:30:28;;;;;;;1999.90;999.90;;;18.20;99.90;;;;;;5033564;28;20954;-66
2022/08/16 03:32:54;;;;;;;1999.90;999.90;;;18.20;99.90;;;;;;5033623;28;20215;-66
2022/08/16 03:35:26;;;;;;;1999.90;999.90;;;18.20;99.90;;;;;;5033497;28;20488;-67
2022/08/16 03:37:55;;;;;;;1999.90;999.90;;;18.20;99.90;;;;;;5033201;28;20418;-66
2022/08/16 03:40:21;;;;;;;1999.90;999.90;;;18.10;99.90;;;;;;5033432;28;20452;-66
2022/08/16 03:42:47;;;;;;;1999.90;999.90;;;18.10;99.90;;;;;;5033320;28;20406;-65
2022/08/16 03:45:13;;;;;;;1999.90;999.90;;;18.00;99.90;;;;;;5033336;28;20518;-66
2022/08/16 03:47:39;;;;;;;1999.90;999.90;;;18.00;99.90;;;;;;5033054;28;20172;-66
2022/08/16 03:50:06;;;;;;;1999.90;999.90;;;17.90;99.90;;;;;;5033236;28;20779;-65
2022/08/16 03:52:34;;;;;;;1999.90;999.90;;;17.90;99.90;;;;;;5040898;28;20519;-67
2022/08/16 03:55:01;;;;;;;1999.90;999.90;;;17.90;99.90;;;;;;5033956;28;20441;-66
2022/08/16 03:57:28;;;;;;;1999.90;999.90;;;17.90;99.90;;;;;;5032942;28;20781;-66
2022/08/16 03:59:54;;;;;;;1999.90;999.90;;;17.90;99.90;;;;;;5033012;28;20450;-66
2022/08/16 04:02:21;;;;;;;1999.90;999.90;;;18.00;99.90;;;;;;5033008;28;20424;-65
2022/08/16 04:04:47;;;;;;;1999.90;999.90;;;18.00;99.90;;;;;;5033301;28;20214;-66
2022/08/16 04:07:14;;;;;;;1999.90;999.90;;;18.00;99.90;;;;;;5032642;28;20484;-66
2022/08/16 04:09:39;;;;;;;1999.90;999.90;;;18.00;99.90;;;;;;5032950;28;20509;-66
2022/08/16 04:12:06;;;;;;;1999.90;999.90;;;18.00;99.90;;;;;;5032747;28;20497;-67
2022/08/16 04:14:32;;;;;;;1999.90;999.90;;;18.00;99.90;;;;;;5032911;28;20625;-66
2022/08/16 04:16:58;;;;;;;1999.90;999.90;;;18.00;99.90;;;;;;5032433;28;20417;-66
2022/08/16 04:19:25;;;;;;;1999.90;999.90;;;18.00;99.90;;;;;;5032634;28;20198;-66
2022/08/16 04:21:51;;;;;;;1999.90;999.90;;;18.00;99.90;;;;;;5032676;28;20406;-66
2022/08/16 04:24:16;;;;;;;1999.90;999.90;;;18.00;99.90;;;;;;5032525;28;20944;-66
2022/08/16 04:26:43;;;;;;;1999.90;999.90;;;18.00;99.90;;;;;;5032272;28;20175;-66
2022/08/16 04:29:08;;;;;;;1999.90;999.90;;;18.10;99.90;;;;;;5032500;28;20178;-66
2022/08/16 04:31:34;;;;;;;1999.90;999.90;;;18.10;99.90;;;;;;5032498;28;20425;-66
2022/08/16 04:33:59;;;;;;;1999.90;999.90;;;18.10;99.90;;;;;;5032336;28;20657;-65
2022/08/16 04:36:26;;;;;;;1999.90;999.90;;;18.00;99.90;;;;;;5032193;28;20246;-66
2022/08/16 04:38:53;;;;;;;1999.90;999.90;;;18.00;99.90;;;;;;5032310;28;20245;-66
2022/08/16 04:41:19;;;;;;;1999.90;999.90;;;18.00;99.90;;;;;;5032373;28;20449;-65
2022/08/16 04:43:45;;;;;;;1999.90;999.90;;;18.00;99.90;;;;;;5032216;28;20410;-65
2022/08/16 04:46:13;;;;;;;1999.90;999.90;;;18.10;99.90;;;;;;5032071;28;20766;-65
2022/08/16 04:48:40;;;;;;;1999.90;999.90;;;18.10;99.90;;;;;;5032204;28;20258;-67
2022/08/16 04:51:06;;;;;;;1999.90;999.90;;;18.00;99.90;;;;;;5035778;28;20465;-66
2022/08/16 04:53:32;;;;;;;1999.90;999.90;;;18.10;99.90;;;;;;5040933;28;20401;-66
2022/08/16 04:55:59;;;;;;;1999.90;999.90;;;18.20;99.90;;;;;;5041700;28;20425;-66
2022/08/16 04:58:25;;;;;;;1999.90;999.90;;;18.10;99.90;;;;;;5033448;28;20409;-66
2022/08/16 05:00:50;;;;;;;1999.90;999.90;;;18.10;99.90;;;;;;5032127;28;20425;-66
2022/08/16 05:03:16;;;;;;;1999.90;999.90;;;18.10;99.90;;;;;;5031972;28;20419;-66
2022/08/16 05:05:42;;;;;;;1999.90;999.90;;;18.10;99.90;;;;;;5031863;28;20214;-65
2022/08/16 05:08:08;;;;;;;1999.90;999.90;;;18.10;99.90;;;;;;5031714;28;20203;-66
2022/08/16 05:10:34;;;;;;;1999.90;999.90;;;18.20;99.90;;;;;;5031970;28;20172;-67
2022/08/16 05:13:01;;;;;;;1999.90;999.90;;;18.20;99.90;;;;;;5031947;28;20406;-67
2022/08/16 05:15:27;;;;;;;1999.90;999.90;;;18.30;99.90;;;;;;5033641;28;20419;-66
2022/08/16 05:17:54;;;;;;;1999.90;999.90;;;18.30;99.90;;;;;;5041983;28;20413;-67
2022/08/16 05:20:21;;;;;;;1999.90;999.90;;;18.40;99.90;;;;;;5041954;28;20456;-67
2022/08/16 05:22:46;;;;;;;1999.90;999.90;;;18.40;99.90;;;;;;5040435;28;20415;-67
2022/08/16 05:25:13;;;;;;;1999.90;999.90;;;18.40;99.90;;;;;;5040956;28;20426;-67
2022/08/16 05:27:40;;;;;;;1999.90;999.90;;;18.50;99.90;;;;;;5023052;28;20182;-66
2022/08/16 05:30:07;;;;;;;1999.90;999.90;;;18.50;99.90;;;;;;5031798;28;20411;-66
2022/08/16 05:32:34;;;;;;;1999.90;999.90;;;18.60;99.90;;;;;;5031732;28;20411;-66
2022/08/16 05:35:01;;;;;;;1999.90;999.90;;;18.70;99.90;;;;;;5013970;28;20437;-67
2022/08/16 05:37:26;;;;;;;1999.90;999.90;;;18.70;99.90;;;;;;5031399;28;20420;-67
2022/08/16 05:39:52;;;;;;;1999.90;999.90;;;18.80;99.90;;;;;;5031657;28;20458;-67
2022/08/16 05:42:18;;;;;;;1999.90;999.90;;;18.80;99.90;;;;;;5031719;28;20166;-66
2022/08/16 05:44:43;;;;;;;1999.90;999.90;;;18.90;99.90;;;;;;5031635;28;20747;-66
2022/08/16 05:47:09;;;;;;;1999.90;999.90;;;19.00;99.90;;;;;;5031314;28;20192;-65
2022/08/16 05:49:35;;;;;;;1999.90;999.90;;;19.10;99.90;;;;;;5034386;28;20688;-67
2022/08/16 05:52:00;;;;;;;1999.90;999.90;;;19.20;99.90;;;;;;5042080;28;20164;-66
2022/08/16 05:54:27;;;;;;;1999.90;999.90;;;19.30;99.90;;;;;;5024243;28;20226;-67
2022/08/16 05:56:56;;;;;;;1999.90;999.90;;;19.30;99.90;;;;;;5035130;28;20200;-66
2022/08/16 05:59:23;;;;;;;1999.90;999.90;;;19.50;99.90;;;;;;5013784;28;20458;-66
2022/08/16 06:01:50;;;;;;;1999.90;999.90;;;19.50;99.90;;;;;;5031395;28;20414;-65
2022/08/16 06:04:16;;;;;;;1999.90;999.90;;;19.60;99.90;;;;;;5031225;28;20447;-67
2022/08/16 06:06:43;;;;;;;1999.90;999.90;;;19.60;99.90;;;;;;5031198;28;20494;-65
2022/08/16 06:09:10;;;;;;;1999.90;999.90;;;19.70;99.90;;;;;;5031355;28;20404;-66
2022/08/16 06:11:36;;;;;;;1999.90;999.90;;;19.70;99.90;;;;;;5031355;28;20389;-66
2022/08/16 06:14:03;;;;;;;1999.90;999.90;;;19.80;99.90;;;;;;5031353;28;20806;-66
2022/08/16 06:16:29;;;;;;;1999.90;999.90;;;19.90;99.90;;;;;;5037688;28;20781;-66
2022/08/16 06:18:55;;;;;;;1999.90;999.90;;;20.10;99.90;;;;;;5041800;28;20456;-67
2022/08/16 06:21:21;;;;;;;1999.90;999.90;;;20.10;99.90;;;;;;5039458;28;20166;-67
2022/08/16 06:23:46;;;;;;;1999.90;999.90;;;20.30;99.90;;;;;;5038582;28;20170;-67
2022/08/16 06:26:12;;;;;;;1999.90;999.90;;;20.40;99.90;;;;;;5041450;28;20975;-67
2022/08/16 06:28:38;;;;;;;1999.90;999.90;;;20.50;99.90;;;;;;5040391;28;20171;-67
2022/08/16 06:31:05;;;;;;;1999.90;999.90;;;20.50;99.90;;;;;;5039240;28;20187;-66
2022/08/16 06:33:31;;;;;;;1999.90;999.90;;;20.60;99.90;;;;;;5039068;28;20169;-67
2022/08/16 06:35:56;;;;;;;1999.90;999.90;;;20.60;99.90;;;;;;5040051;28;20453;-65
2022/08/16 06:38:23;;;;;;;1999.90;999.90;;;20.70;99.90;;;;;;5039815;28;20244;-67
2022/08/16 06:40:49;;;;;;;1999.90;999.90;;;20.70;99.90;;;;;;5038960;28;20237;-67
2022/08/16 06:43:15;;;;;;;1999.90;999.90;;;20.80;99.90;;;;;;5041719;28;20409;-67
2022/08/16 06:45:42;;;;;;;1999.90;999.90;;;20.90;99.90;;;;;;5040507;28;20764;-66
2022/08/16 06:48:09;;;;;;;1999.90;999.90;;;20.90;99.90;;;;;;5040630;28;20594;-67
2022/08/16 06:50:35;;;;;;;1999.90;999.90;;;21.00;99.90;;;;;;5039364;28;20380;-67
2022/08/16 06:53:02;;;;;;;1999.90;999.90;;;21.10;99.90;;;;;;5040065;28;20383;-67
2022/08/16 06:55:28;;;;;;;1999.90;999.90;;;21.20;99.90;;;;;;5040010;28;20926;-67
2022/08/16 06:57:54;;;;;;;1999.90;999.90;;;21.30;99.90;;;;;;5039088;28;20387;-67
2022/08/16 07:00:21;;;;;;;1999.90;999.90;;;21.40;99.90;;;;;;5038778;28;20823;-67
2022/08/16 07:02:46;;;;;;;1999.90;999.90;;;21.50;99.90;;;;;;5039435;28;20162;-67
2022/08/16 07:05:15;;;;;;;1999.90;999.90;;;21.60;99.90;;;;;;5034865;28;20441;-66
2022/08/16 07:07:43;;;;;;;1999.90;999.90;;;21.70;99.90;;;;;;5033834;28;20171;-66
2022/08/16 07:10:09;;;;;;;1999.90;999.90;;;21.80;99.90;;;;;;5033964;28;20433;-66
2022/08/16 07:12:36;;;;;;;1999.90;999.90;;;21.90;99.90;;;;;;5034121;28;20590;-66
2022/08/16 07:15:03;;;;;;;1999.90;999.90;;;22.00;99.90;;;;;;5033804;28;20399;-66
2022/08/16 07:17:29;;;;;;;1999.90;999.90;;;22.10;99.90;;;;;;5033613;28;20450;-66
2022/08/16 07:19:55;;;;;;;1999.90;999.90;;;22.30;99.90;;;;;;5033763;28;20934;-66
2022/08/16 07:22:21;;;;;;;1999.90;999.90;;;22.40;99.90;;;;;;5033780;28;20480;-65
2022/08/16 07:24:47;;;;;;;1999.90;999.90;;;22.50;99.90;;;;;;5033668;28;20422;-66
2022/08/16 07:27:12;;;;;;;1999.90;999.90;;;22.60;99.90;;;;;;5032272;28;20384;-67
2022/08/16 07:29:38;;;;;;;1999.90;999.90;;;22.70;99.90;;;;;;5033597;28;20171;-67
2022/08/16 07:32:05;;;;;;;1999.90;999.90;;;22.80;99.90;;;;;;5033520;28;20249;-67
2022/08/16 07:34:32;;;;;;;1999.90;999.90;;;22.80;99.90;;;;;;5033496;28;20191;-67
2022/08/16 07:36:59;;;;;;;1999.90;999.90;;;22.90;99.90;;;;;;5033308;28;20472;-66
2022/08/16 07:39:25;;;;;;;1999.90;999.90;;;22.90;99.90;;;;;;5033410;28;20793;-66
2022/08/16 07:41:51;;;;;;;1999.90;999.90;;;22.90;99.90;;;;;;5036040;28;20380;-66
2022/08/16 07:44:16;;;;;;;1999.90;999.90;;;22.80;99.90;;;;;;5038396;28;20217;-67
2022/08/16 07:46:42;;;;;;;1999.90;999.90;;;22.90;99.90;;;;;;5035552;28;20210;-66
2022/08/16 07:49:08;;;;;;;1999.90;999.90;;;23.00;99.90;;;;;;5033270;28;20176;-66
2022/08/16 07:51:35;;;;;;;1999.90;999.90;;;23.00;99.90;;;;;;5033245;28;20238;-66
2022/08/16 07:54:04;;;;;;;1999.90;999.90;;;23.10;99.90;;;;;;5033208;28;20183;-66
2022/08/16 07:56:30;;;;;;;1999.90;999.90;;;23.10;99.90;;;;;;5032900;28;20397;-66
2022/08/16 07:58:56;;;;;;;1999.90;999.90;;;23.30;99.90;;;;;;5032986;28;20450;-66
2022/08/16 08:01:22;;;;;;;1999.90;999.90;;;23.40;99.90;;;;;;5033028;28;20210;-65
2022/08/16 08:03:48;;;;;;;1999.90;999.90;;;23.40;99.90;;;;;;5032827;28;20179;-66
2022/08/16 08:06:14;;;;;;;1999.90;999.90;;;23.50;99.90;;;;;;5032827;28;20180;-67
2022/08/16 08:08:41;;;;;;;1999.90;999.90;;;23.70;99.90;;;;;;5032981;28;20386;-67
2022/08/16 08:11:06;;;;;;;1999.90;999.90;;;23.80;99.90;;;;;;5032844;28;20407;-65
2022/08/16 08:13:32;;;;;;;1999.90;999.90;;;23.80;99.90;;;;;;5032790;28;20480;-65
2022/08/16 08:15:57;;;;;;;1999.90;999.90;;;23.80;99.90;;;;;;5032484;28;20188;-65
2022/08/16 08:18:23;;;;;;;1999.90;999.90;;;23.90;99.90;;;;;;5032869;28;20248;-65
2022/08/16 08:20:49;;;;;;;1999.90;999.90;;;23.90;99.90;;;;;;5032694;28;20669;-67
2022/08/16 08:23:14;;;;;;;1999.90;999.90;;;24.00;99.90;;;;;;5032591;28;20164;-65
2022/08/16 08:25:47;;;;;;;1999.90;999.90;;;24.10;99.90;;;;;;5032546;28;20215;-65
2022/08/16 08:28:14;;;;;;;1999.90;999.90;;;24.10;99.90;;;;;;5032140;28;20180;-65
2022/08/16 08:30:40;;;;;;;1999.90;999.90;;;24.30;99.90;;;;;;5032758;28;20788;-65
2022/08/16 08:33:06;;;;;;;1999.90;999.90;;;24.30;99.90;;;;;;5032487;28;20378;-66
2022/08/16 08:35:33;;;;;;;1999.90;999.90;;;24.40;99.90;;;;;;5032364;28;20402;-66
2022/08/16 08:37:59;;;;;;;1999.90;999.90;;;24.50;99.90;;;;;;5031715;28;20373;-66
2022/08/16 08:40:26;;;;;;;1999.90;999.90;;;24.60;99.90;;;;;;5032189;28;20458;-67
2022/08/16 08:42:57;;;;;;;1999.90;999.90;;;24.60;99.90;;;;;;5032148;28;20406;-67
2022/08/16 08:45:22;;;;;;;1999.90;999.90;;;24.70;99.90;;;;;;5032399;28;20946;-66
2022/08/16 08:47:48;;;;;;;1999.90;999.90;;;24.90;99.90;;;;;;5032081;28;20412;-67
2022/08/16 08:50:15;;;;;;;1999.90;999.90;;;24.90;99.90;;;;;;5032320;28;20180;-66
2022/08/16 08:52:41;;;;;;;1999.90;999.90;;;25.10;99.90;;;;;;5032160;28;20206;-66
2022/08/16 08:55:11;;;;;;;1999.90;999.90;;;25.20;99.90;;;;;;5032034;28;20427;-65
2022/08/16 08:57:42;;;;;;;1999.90;999.90;;;25.30;99.90;;;;;;5032263;28;20880;-65
2022/08/16 09:00:11;;;;;;;1999.90;999.90;;;25.40;99.90;;;;;;5031980;28;20554;-65
2022/08/16 09:02:37;;;;;;;1999.90;999.90;;;25.50;99.90;;;;;;5032019;28;20491;-65
2022/08/16 09:05:03;;;;;;;1999.90;999.90;;;25.50;99.90;;;;;;5031832;28;20530;-66
2022/08/16 09:07:28;;;;;;;1999.90;999.90;;;25.70;99.90;;;;;;5033473;28;20160;-66
2022/08/16 09:09:54;;;;;;;1999.90;999.90;;;25.70;99.90;;;;;;5032844;28;20374;-65
2022/08/16 09:12:19;;;;;;;1999.90;999.90;;;25.60;99.90;;;;;;5032152;28;20393;-66
2022/08/16 09:14:45;;;;;;;1999.90;999.90;;;25.70;99.90;;;;;;5031858;28;20224;-66
2022/08/16 09:17:11;;;;;;;1999.90;999.90;;;25.70;99.90;;;;;;5031655;28;20172;-66
2022/08/16 09:19:38;;;;;;;1999.90;999.90;;;25.70;99.90;;;;;;5032017;28;20199;-66
2022/08/16 09:22:05;;;;;;;1999.90;999.90;;;25.70;99.90;;;;;;5031834;28;20393;-66
2022/08/16 09:24:32;;;;;;;1999.90;999.90;;;25.80;99.90;;;;;;5031644;28;20397;-65
2022/08/16 09:26:58;;;;;;;1999.90;999.90;;;25.90;99.90;;;;;;5031555;28;20888;-66
2022/08/16 09:29:24;;;;;;;1999.90;999.90;;;25.90;99.90;;;;;;5031927;28;20415;-66
2022/08/16 09:31:49;;;;;;;1999.90;999.90;;;26.10;99.90;;;;;;5031829;28;20768;-66
2022/08/16 09:34:15;;;;;;;1999.90;999.90;;;26.20;99.90;;;;;;5031708;28;20233;-66
2022/08/16 09:36:41;;;;;;;1999.90;999.90;;;26.40;99.90;;;;;;5031508;28;20187;-66
2022/08/16 09:39:07;;;;;;;1999.90;999.90;;;26.60;99.90;;;;;;5031591;28;20747;-66
2022/08/16 09:41:33;;;;;;;1999.90;999.90;;;26.70;99.90;;;;;;5031683;28;20373;-66
2022/08/16 09:43:59;;;;;;;1999.90;999.90;;;26.70;99.90;;;;;;5031601;28;20177;-67
2022/08/16 09:46:26;;;;;;;1999.90;999.90;;;26.90;99.90;;;;;;5031461;28;20415;-66
2022/08/16 09:48:53;;;;;;;1999.90;999.90;;;27.00;99.90;;;;;;5031673;28;20892;-66
2022/08/16 09:51:22;;;;;;;1999.90;999.90;;;27.20;99.90;;;;;;5033761;28;20410;-66
2022/08/16 09:53:48;;;;;;;1999.90;999.90;;;27.30;99.90;;;;;;5035323;28;20469;-65
2022/08/16 09:56:29;;;;;;;1999.90;999.90;;;27.40;99.90;;;;;;5035107;28;20481;-67
2022/08/16 09:58:57;;;;;;;1999.90;999.90;;;27.50;99.90;;;;;;5035403;28;20465;-66
2022/08/16 10:01:23;;;;;;;1999.90;999.90;;;27.60;99.90;;;;;;5035206;28;20407;-68
2022/08/16 10:03:50;;;;;;;1999.90;999.90;;;27.40;99.90;;;;;;5035134;28;20889;-66
2022/08/16 10:06:17;;;;;;;1999.90;999.90;;;27.60;99.90;;;;;;5091496;22;21050;-72
2022/08/16 10:08:44;;;;;;;1999.90;999.90;;;27.70;99.90;;;;;;5055329;28;20842;-72
2022/08/16 10:13:54;;;;;;;1999.90;999.90;;;28.00;99.90;;;;;;5055353;28;20400;-72
2022/08/16 10:16:20;;;;;;;1999.90;999.90;;;28.20;99.90;;;;;;5054627;28;20515;-72
2022/08/16 10:18:46;;;;;;;1999.90;999.90;;;28.30;99.90;;;;;;5054814;28;20402;-72
2022/08/16 10:21:15;;;;;;;1999.90;999.90;;;28.30;99.90;;;;;;5054963;28;20890;-71
2022/08/16 10:23:42;;;;;;;1999.90;999.90;;;28.40;99.90;;;;;;5054793;28;20171;-71
2022/08/16 10:26:07;;;;;;;1999.90;999.90;;;28.50;99.90;;;;;;5054802;28;21007;-71
2022/08/16 10:28:34;;;;;;;1999.90;999.90;;;28.60;99.90;;;;;;5054784;28;20410;-71
2022/08/16 10:31:00;;;;;;;1999.90;999.90;;;28.90;99.90;;;;;;5054745;28;20576;-71
2022/08/16 10:33:28;;;;;;;1999.90;999.90;;;28.90;99.90;;;;;;5054576;28;20406;-71
2022/08/16 10:35:54;;;;;;;1999.90;999.90;;;29.00;99.90;;;;;;5054445;28;20430;-71
2022/08/16 10:38:19;;;;;;;1999.90;999.90;;;29.10;99.90;;;;;;5054374;28;20409;-71
2022/08/16 10:40:45;;;;;;;1999.90;999.90;;;29.00;99.50;;;;;;5054732;28;20955;-71
2022/08/16 10:43:11;;;;;;;1999.90;999.90;;;29.00;99.50;;;;;;5054543;28;20171;-71
2022/08/16 10:45:37;;;;;;;1999.90;999.90;;;29.00;98.60;;;;;;5054248;28;20191;-71
2022/08/16 10:48:09;;;;;;;1999.90;999.90;;;29.10;95.90;;;;;;5054410;28;20412;-71
2022/08/16 10:50:35;;;;;;;1999.90;999.90;;;29.20;94.90;;;;;;5062361;28;20418;-72
2022/08/16 10:53:05;;;;;;;1999.90;999.90;;;29.30;94.70;;;;;;5075147;28;20402;-72
2022/08/16 10:55:32;;;;;;;1999.90;999.90;;;29.40;92.50;;;;;;5074205;28;20493;-72
2022/08/16 10:58:01;;;;;;;1999.90;999.90;;;29.50;86.50;;;;;;5072592;28;20418;-73
2022/08/16 11:00:27;;;;;;;1999.90;999.90;;;29.60;86.30;;;;;;5074096;28;20438;-71
2022/08/16 11:02:53;;;;;;;1999.90;999.90;;;29.80;86.00;;;;;;5073179;28;20398;-72
2022/08/16 11:05:18;;;;;;;1999.90;999.90;;;30.00;83.10;;;;;;5074348;28;20442;-72
2022/08/16 11:07:49;;;;;;;1999.90;999.90;;;30.20;82.80;;;;;;5074463;28;20182;-73
2022/08/16 11:10:19;;;;;;;1999.90;999.90;;;30.60;81.60;;;;;;5075183;28;20199;-71
2022/08/16 11:12:44;;;;;;;1999.90;999.90;;;31.00;80.60;;;;;;5075049;28;20504;-72
2022/08/16 11:15:10;;;;;;;1999.90;999.90;;;31.40;74.50;;;;;;5075088;28;20417;-71
2022/08/16 11:17:38;;;;;;;1999.90;999.90;;;31.60;71.30;;;;;;5073005;28;20176;-72
2022/08/16 11:20:05;;;;;;;1999.90;999.90;;;31.80;66.70;;;;;;5073688;28;20267;-72
2022/08/16 11:22:31;;;;;;;1999.90;999.90;;;32.00;60.00;;;;;;5072786;28;20410;-72
2022/08/16 11:24:57;;;;;;;1999.90;999.90;;;32.10;60.90;;;;;;5074514;28;20414;-72
2022/08/16 11:27:23;;;;;;;1999.90;999.90;;;32.20;57.60;;;;;;5056758;28;20418;-70
2022/08/16 11:29:53;;;;;;;1999.90;999.90;;;32.00;55.10;;;;;;5071783;28;20239;-73
2022/08/16 11:32:20;;;;;;;1999.90;999.90;;;31.60;54.90;;;;;;5071940;28;20410;-73
2022/08/16 11:34:46;;;;;;;1999.90;999.90;;;31.40;56.90;;;;;;5072382;28;20873;-73
2022/08/16 11:37:12;;;;;;;1999.90;999.90;;;31.30;58.20;;;;;;5073459;28;20421;-71
2022/08/16 11:39:37;;;;;;;1999.90;999.90;;;31.40;59.00;;;;;;5070964;28;20226;-73
2022/08/16 11:42:03;;;;;;;1999.90;999.90;;;31.60;58.00;;;;;;5070773;28;20219;-72
2022/08/16 11:44:29;;;;;;;1999.90;999.90;;;32.00;56.80;;;;;;5053587;28;20175;-73
2022/08/16 11:46:54;;;;;;;1999.90;999.90;;;32.50;56.00;;;;;;5069817;28;20406;-72
2022/08/16 11:49:20;;;;;;;1999.90;999.90;;;32.90;54.00;;;;;;5069053;28;20641;-73
2022/08/16 11:51:46;;;;;;;1999.90;999.90;;;33.20;50.00;;;;;;5070940;28;20175;-73
2022/08/16 11:54:13;;;;;;;1999.90;999.90;;;33.30;47.00;;;;;;5070933;28;20251;-71
2022/08/16 11:56:38;;;;;;;1999.90;999.90;;;33.20;48.20;;;;;;5068551;28;20201;-72
2022/08/16 11:59:04;;;;;;;1999.90;999.90;;;33.50;45.60;;;;;;5066628;28;20471;-72